Startpagina
METAR-TAF:

METAR-TAF

Vliegvelden :

Curaçao International Airport

Curaçao, Nederlandse Antillen

breedte: 12-12N, lengte: 068-58W, hoogte: 9 m

Actueel weer

Dit bericht is 22 minuten geleden gemaakt, om 12:00 UTC
Wind 10 kt uit het oostzuidoosten
Temperatuur 28°C
Vochtigheid 74%
Druk 1014 hPa
Zicht 10 km of meer

METAR: TNCC 211200Z AUTO 11010KT 9999 NCD 28/23 Q1014 NOSIG

Tijdstip: 08:22 (12:22 UTC)

Verwachting

Dit bericht is 2 uur en het 52 minuten geleden gemaakt, om 09:30 UTC
Verwachting geldig van 21 om 12 UTC tot 22 om 12 UTC
Wind 13 kt uit het oosten
Zicht 10 km of meer
Verspreide wolken op 2000 ft
Kans 30% :
Tijdelijke
van 21 om 16 UTC tot 21 om 21 UTC
Wind 13 kt uit het oosten met uitschieters tot 24 kt
Kans 30% :
Tijdelijke
van 22 om 07 UTC tot 22 om 12 UTC
Wind 17 kt uit het oostzuidoosten
Zicht: 7000 m
Gebroken wolken op 1400 ft
lichte regenbuien

TAF: TNCC 210930Z 2112/2212 10013KT 9999 SCT020 PROB30 TEMPO 2116/2121 09013G24KT PROB30 TEMPO 2207/2212 11017KT 7000 -SHRA BKN014

Waarnemingen en weersverwachtingen van meer dan 4000 vliegvelden (METAR en TAF).

De beschikbare stations zijn de gele en rode punten op de kaart.

Ga met uw muis naar het station om de naam te zien.

Klik dan om waarnemingen en weersverwachtingen te zien.

kaart wijzigen: klik op de groene knoppen met een zwart kruis om in te zoomen, op de groene knop met een streepje om uit te zoomen of op de groene pijlen voor aangrenzende kaarten.


METAR-TAF: